sensor_id;sensor_type;location;lat;lon;timestamp;P1;durP1;ratioP1;P2;durP2;ratioP2
76107;SDS011;64834;52.516;10.528;2023-05-10T00:01:22;4.50;;;2.70;;
76107;SDS011;64834;52.516;10.528;2023-05-10T00:03:47;5.95;;;2.75;;
76107;SDS011;64834;52.516;10.528;2023-05-10T00:06:12;4.50;;;3.00;;
76107;SDS011;64834;52.516;10.528;2023-05-10T00:08:38;4.13;;;3.00;;
76107;SDS011;64834;52.516;10.528;2023-05-10T00:11:03;5.03;;;3.20;;
76107;SDS011;64834;52.516;10.528;2023-05-10T00:13:29;5.32;;;2.72;;
76107;SDS011;64834;52.516;10.528;2023-05-10T00:15:54;9.18;;;2.83;;
76107;SDS011;64834;52.516;10.528;2023-05-10T00:18:19;4.80;;;3.28;;
76107;SDS011;64834;52.516;10.528;2023-05-10T00:20:45;6.65;;;2.80;;
76107;SDS011;64834;52.516;10.528;2023-05-10T00:23:11;4.05;;;2.45;;
76107;SDS011;64834;52.516;10.528;2023-05-10T00:25:37;4.13;;;2.95;;
76107;SDS011;64834;52.516;10.528;2023-05-10T00:28:02;4.88;;;2.63;;
76107;SDS011;64834;52.516;10.528;2023-05-10T00:30:27;7.47;;;3.38;;
76107;SDS011;64834;52.516;10.528;2023-05-10T00:32:53;3.80;;;2.78;;
76107;SDS011;64834;52.516;10.528;2023-05-10T00:35:18;5.18;;;2.92;;
76107;SDS011;64834;52.516;10.528;2023-05-10T00:37:44;4.93;;;3.20;;
76107;SDS011;64834;52.516;10.528;2023-05-10T00:40:10;5.72;;;3.22;;
76107;SDS011;64834;52.516;10.528;2023-05-10T00:42:36;5.28;;;3.30;;
76107;SDS011;64834;52.516;10.528;2023-05-10T00:45:01;4.32;;;2.75;;
76107;SDS011;64834;52.516;10.528;2023-05-10T00:47:26;4.25;;;3.30;;
76107;SDS011;64834;52.516;10.528;2023-05-10T00:49:53;5.55;;;3.40;;
76107;SDS011;64834;52.516;10.528;2023-05-10T00:52:18;7.28;;;2.83;;
76107;SDS011;64834;52.516;10.528;2023-05-10T00:54:44;6.97;;;3.25;;
76107;SDS011;64834;52.516;10.528;2023-05-10T00:57:09;5.30;;;3.33;;
76107;SDS011;64834;52.516;10.528;2023-05-10T00:59:35;8.13;;;2.90;;
76107;SDS011;64834;52.516;10.528;2023-05-10T01:02:01;5.03;;;2.47;;
76107;SDS011;64834;52.516;10.528;2023-05-10T01:04:27;5.78;;;3.13;;
76107;SDS011;64834;52.516;10.528;2023-05-10T01:06:53;4.93;;;3.00;;
76107;SDS011;64834;52.516;10.528;2023-05-10T01:09:19;5.10;;;3.10;;
76107;SDS011;64834;52.516;10.528;2023-05-10T01:11:48;5.97;;;2.63;;
76107;SDS011;64834;52.516;10.528;2023-05-10T01:14:14;6.85;;;3.08;;
76107;SDS011;64834;52.516;10.528;2023-05-10T01:16:51;4.70;;;2.97;;
76107;SDS011;64834;52.516;10.528;2023-05-10T01:19:30;4.95;;;2.92;;
76107;SDS011;64834;52.516;10.528;2023-05-10T01:22:25;5.65;;;2.83;;
76107;SDS011;64834;52.516;10.528;2023-05-10T01:31:08;5.10;;;3.00;;
76107;SDS011;64834;52.516;10.528;2023-05-10T01:36:19;5.75;;;3.17;;
76107;SDS011;64834;52.516;10.528;2023-05-10T01:38:57;5.40;;;3.25;;
76107;SDS011;64834;52.516;10.528;2023-05-10T01:41:40;4.43;;;3.10;;
76107;SDS011;64834;52.516;10.528;2023-05-10T01:44:39;3.95;;;2.75;;
76107;SDS011;64834;52.516;10.528;2023-05-10T01:47:24;6.68;;;2.83;;
76107;SDS011;64834;52.516;10.528;2023-05-10T01:49:52;4.25;;;2.88;;
76107;SDS011;64834;52.516;10.528;2023-05-10T01:52:22;4.40;;;2.80;;
76107;SDS011;64834;52.516;10.528;2023-05-10T01:57:38;4.60;;;3.22;;
76107;SDS011;64834;52.516;10.528;2023-05-10T02:00:07;4.30;;;3.22;;
76107;SDS011;64834;52.516;10.528;2023-05-10T02:02:39;4.47;;;3.03;;
76107;SDS011;64834;52.516;10.528;2023-05-10T02:05:07;4.70;;;3.22;;
76107;SDS011;64834;52.516;10.528;2023-05-10T02:07:34;5.20;;;3.15;;
76107;SDS011;64834;52.516;10.528;2023-05-10T02:10:01;5.25;;;3.15;;
76107;SDS011;64834;52.516;10.528;2023-05-10T02:12:29;5.40;;;3.13;;
76107;SDS011;64834;52.516;10.528;2023-05-10T02:14:56;5.43;;;2.80;;
76107;SDS011;64834;52.516;10.528;2023-05-10T02:17:24;4.20;;;2.70;;
76107;SDS011;64834;52.516;10.528;2023-05-10T02:19:50;4.55;;;3.13;;
76107;SDS011;64834;52.516;10.528;2023-05-10T02:24:44;4.03;;;3.10;;
76107;SDS011;64834;52.516;10.528;2023-05-10T02:27:11;4.88;;;2.90;;
76107;SDS011;64834;52.516;10.528;2023-05-10T02:29:39;5.55;;;3.10;;
76107;SDS011;64834;52.516;10.528;2023-05-10T02:32:04;5.45;;;3.33;;
76107;SDS011;64834;52.516;10.528;2023-05-10T02:34:31;5.40;;;3.00;;
76107;SDS011;64834;52.516;10.528;2023-05-10T02:36:57;6.90;;;3.47;;
76107;SDS011;64834;52.516;10.528;2023-05-10T02:39:24;5.78;;;3.33;;
76107;SDS011;64834;52.516;10.528;2023-05-10T02:41:53;6.15;;;3.13;;
76107;SDS011;64834;52.516;10.528;2023-05-10T02:44:20;4.78;;;3.20;;
76107;SDS011;64834;52.516;10.528;2023-05-10T02:49:13;5.93;;;3.07;;
76107;SDS011;64834;52.516;10.528;2023-05-10T02:51:44;5.55;;;3.33;;
76107;SDS011;64834;52.516;10.528;2023-05-10T02:54:16;4.82;;;3.22;;
76107;SDS011;64834;52.516;10.528;2023-05-10T02:56:47;4.45;;;2.67;;
76107;SDS011;64834;52.516;10.528;2023-05-10T02:59:16;5.03;;;2.85;;
76107;SDS011;64834;52.516;10.528;2023-05-10T03:01:41;5.13;;;3.42;;
76107;SDS011;64834;52.516;10.528;2023-05-10T03:04:07;4.55;;;3.30;;
76107;SDS011;64834;52.516;10.528;2023-05-10T03:06:32;4.43;;;3.13;;
76107;SDS011;64834;52.516;10.528;2023-05-10T03:08:57;5.45;;;3.38;;
76107;SDS011;64834;52.516;10.528;2023-05-10T03:11:39;5.95;;;3.10;;
76107;SDS011;64834;52.516;10.528;2023-05-10T03:16:47;6.32;;;3.17;;
76107;SDS011;64834;52.516;10.528;2023-05-10T03:19:26;5.75;;;3.15;;
76107;SDS011;64834;52.516;10.528;2023-05-10T03:21:57;7.53;;;2.90;;
76107;SDS011;64834;52.516;10.528;2023-05-10T03:24:27;5.22;;;3.60;;
76107;SDS011;64834;52.516;10.528;2023-05-10T03:26:54;5.78;;;3.35;;
76107;SDS011;64834;52.516;10.528;2023-05-10T03:29:23;5.18;;;2.95;;
76107;SDS011;64834;52.516;10.528;2023-05-10T03:31:51;6.38;;;3.10;;
76107;SDS011;64834;52.516;10.528;2023-05-10T03:34:16;5.72;;;3.35;;
76107;SDS011;64834;52.516;10.528;2023-05-10T03:36:42;6.50;;;3.40;;
76107;SDS011;64834;52.516;10.528;2023-05-10T03:39:07;8.48;;;3.85;;
76107;SDS011;64834;52.516;10.528;2023-05-10T03:41:32;4.88;;;3.17;;
76107;SDS011;64834;52.516;10.528;2023-05-10T03:43:58;5.10;;;3.63;;
76107;SDS011;64834;52.516;10.528;2023-05-10T03:46:23;5.40;;;3.50;;
76107;SDS011;64834;52.516;10.528;2023-05-10T03:48:48;7.68;;;3.53;;
76107;SDS011;64834;52.516;10.528;2023-05-10T03:51:14;7.72;;;3.60;;
76107;SDS011;64834;52.516;10.528;2023-05-10T03:53:39;5.38;;;3.33;;
76107;SDS011;64834;52.516;10.528;2023-05-10T03:56:04;4.75;;;3.20;;
76107;SDS011;64834;52.516;10.528;2023-05-10T03:58:30;4.68;;;3.25;;
76107;SDS011;64834;52.516;10.528;2023-05-10T04:00:55;5.53;;;4.07;;
76107;SDS011;64834;52.516;10.528;2023-05-10T04:03:21;5.10;;;3.40;;
76107;SDS011;64834;52.516;10.528;2023-05-10T04:05:46;4.55;;;3.17;;
76107;SDS011;64834;52.516;10.528;2023-05-10T04:08:11;5.90;;;3.42;;
76107;SDS011;64834;52.516;10.528;2023-05-10T04:10:37;6.32;;;3.42;;
76107;SDS011;64834;52.516;10.528;2023-05-10T04:13:02;9.35;;;3.53;;
76107;SDS011;64834;52.516;10.528;2023-05-10T04:15:27;6.00;;;3.50;;
76107;SDS011;64834;52.516;10.528;2023-05-10T04:17:53;5.30;;;3.42;;
76107;SDS011;64834;52.516;10.528;2023-05-10T04:20:18;5.03;;;3.45;;
76107;SDS011;64834;52.516;10.528;2023-05-10T04:22:43;5.45;;;3.47;;
76107;SDS011;64834;52.516;10.528;2023-05-10T04:25:09;8.52;;;3.75;;
76107;SDS011;64834;52.516;10.528;2023-05-10T04:27:34;5.38;;;2.90;;
76107;SDS011;64834;52.516;10.528;2023-05-10T04:30:00;4.50;;;3.13;;
76107;SDS011;64834;52.516;10.528;2023-05-10T04:32:25;4.57;;;3.15;;
76107;SDS011;64834;52.516;10.528;2023-05-10T04:34:50;5.32;;;3.53;;
76107;SDS011;64834;52.516;10.528;2023-05-10T04:37:16;4.35;;;3.38;;
76107;SDS011;64834;52.516;10.528;2023-05-10T04:39:42;8.10;;;3.53;;
76107;SDS011;64834;52.516;10.528;2023-05-10T04:42:08;5.82;;;3.30;;
76107;SDS011;64834;52.516;10.528;2023-05-10T04:44:33;5.85;;;3.25;;
76107;SDS011;64834;52.516;10.528;2023-05-10T04:46:58;4.95;;;3.33;;
76107;SDS011;64834;52.516;10.528;2023-05-10T04:49:24;6.43;;;3.17;;
76107;SDS011;64834;52.516;10.528;2023-05-10T04:51:49;5.32;;;3.40;;
76107;SDS011;64834;52.516;10.528;2023-05-10T04:54:14;6.22;;;3.33;;
76107;SDS011;64834;52.516;10.528;2023-05-10T04:56:40;6.32;;;3.50;;
76107;SDS011;64834;52.516;10.528;2023-05-10T04:59:05;6.30;;;3.70;;
76107;SDS011;64834;52.516;10.528;2023-05-10T05:01:31;5.07;;;3.55;;
76107;SDS011;64834;52.516;10.528;2023-05-10T05:03:56;5.43;;;3.00;;
76107;SDS011;64834;52.516;10.528;2023-05-10T05:06:22;5.35;;;3.80;;
76107;SDS011;64834;52.516;10.528;2023-05-10T05:08:49;6.72;;;4.05;;
76107;SDS011;64834;52.516;10.528;2023-05-10T05:11:14;5.05;;;3.67;;
76107;SDS011;64834;52.516;10.528;2023-05-10T05:13:40;6.25;;;3.50;;
76107;SDS011;64834;52.516;10.528;2023-05-10T05:16:05;5.40;;;3.17;;
76107;SDS011;64834;52.516;10.528;2023-05-10T05:18:31;5.00;;;3.10;;
76107;SDS011;64834;52.516;10.528;2023-05-10T05:20:56;10.20;;;3.33;;
76107;SDS011;64834;52.516;10.528;2023-05-10T05:23:21;7.75;;;3.85;;
76107;SDS011;64834;52.516;10.528;2023-05-10T05:25:49;5.85;;;3.13;;
76107;SDS011;64834;52.516;10.528;2023-05-10T05:28:16;4.25;;;3.03;;
76107;SDS011;64834;52.516;10.528;2023-05-10T05:30:42;5.95;;;3.35;;
76107;SDS011;64834;52.516;10.528;2023-05-10T05:33:07;5.35;;;3.38;;
76107;SDS011;64834;52.516;10.528;2023-05-10T05:35:32;4.57;;;3.30;;
76107;SDS011;64834;52.516;10.528;2023-05-10T05:37:58;5.70;;;3.33;;
76107;SDS011;64834;52.516;10.528;2023-05-10T05:40:23;5.10;;;3.25;;
76107;SDS011;64834;52.516;10.528;2023-05-10T05:42:48;7.07;;;3.67;;
76107;SDS011;64834;52.516;10.528;2023-05-10T05:45:14;4.63;;;3.10;;
76107;SDS011;64834;52.516;10.528;2023-05-10T05:47:40;5.90;;;3.17;;
76107;SDS011;64834;52.516;10.528;2023-05-10T05:50:05;4.75;;;3.63;;
76107;SDS011;64834;52.516;10.528;2023-05-10T05:52:31;4.93;;;3.25;;
76107;SDS011;64834;52.516;10.528;2023-05-10T05:54:56;4.85;;;3.15;;
76107;SDS011;64834;52.516;10.528;2023-05-10T05:57:21;6.05;;;3.33;;
76107;SDS011;64834;52.516;10.528;2023-05-10T05:59:47;5.25;;;2.92;;
76107;SDS011;64834;52.516;10.528;2023-05-10T06:02:13;6.10;;;3.13;;
76107;SDS011;64834;52.516;10.528;2023-05-10T06:04:38;4.47;;;2.90;;
76107;SDS011;64834;52.516;10.528;2023-05-10T06:07:03;4.75;;;3.10;;
76107;SDS011;64834;52.516;10.528;2023-05-10T06:09:29;7.00;;;3.33;;
76107;SDS011;64834;52.516;10.528;2023-05-10T06:11:54;6.78;;;3.15;;
76107;SDS011;64834;52.516;10.528;2023-05-10T06:14:20;7.25;;;3.58;;
76107;SDS011;64834;52.516;10.528;2023-05-10T06:16:45;5.68;;;3.97;;
76107;SDS011;64834;52.516;10.528;2023-05-10T06:19:11;5.68;;;3.35;;
76107;SDS011;64834;52.516;10.528;2023-05-10T06:21:36;5.43;;;3.65;;
76107;SDS011;64834;52.516;10.528;2023-05-10T06:24:02;5.65;;;3.30;;
76107;SDS011;64834;52.516;10.528;2023-05-10T06:26:27;8.02;;;3.15;;
76107;SDS011;64834;52.516;10.528;2023-05-10T06:28:53;8.85;;;3.47;;
76107;SDS011;64834;52.516;10.528;2023-05-10T06:31:18;5.00;;;3.22;;
76107;SDS011;64834;52.516;10.528;2023-05-10T06:33:46;6.18;;;3.10;;
76107;SDS011;64834;52.516;10.528;2023-05-10T06:36:12;5.55;;;3.28;;
76107;SDS011;64834;52.516;10.528;2023-05-10T06:38:38;5.05;;;3.60;;
76107;SDS011;64834;52.516;10.528;2023-05-10T06:41:03;7.32;;;3.45;;
76107;SDS011;64834;52.516;10.528;2023-05-10T06:43:29;7.15;;;3.42;;
76107;SDS011;64834;52.516;10.528;2023-05-10T06:45:54;4.75;;;3.50;;
76107;SDS011;64834;52.516;10.528;2023-05-10T06:48:20;5.10;;;3.15;;
76107;SDS011;64834;52.516;10.528;2023-05-10T06:50:45;9.18;;;3.65;;
76107;SDS011;64834;52.516;10.528;2023-05-10T06:53:10;5.57;;;3.60;;
76107;SDS011;64834;52.516;10.528;2023-05-10T06:55:38;6.25;;;3.90;;
76107;SDS011;64834;52.516;10.528;2023-05-10T06:58:03;7.93;;;3.50;;
76107;SDS011;64834;52.516;10.528;2023-05-10T07:00:28;6.95;;;3.15;;
76107;SDS011;64834;52.516;10.528;2023-05-10T07:02:54;4.65;;;3.67;;
76107;SDS011;64834;52.516;10.528;2023-05-10T07:05:20;6.38;;;3.75;;
76107;SDS011;64834;52.516;10.528;2023-05-10T07:07:45;5.13;;;3.55;;
76107;SDS011;64834;52.516;10.528;2023-05-10T07:10:10;6.80;;;3.72;;
76107;SDS011;64834;52.516;10.528;2023-05-10T07:12:36;4.20;;;3.20;;
76107;SDS011;64834;52.516;10.528;2023-05-10T07:15:01;5.55;;;3.58;;
76107;SDS011;64834;52.516;10.528;2023-05-10T07:17:26;6.55;;;3.88;;
76107;SDS011;64834;52.516;10.528;2023-05-10T07:19:52;5.00;;;3.78;;
76107;SDS011;64834;52.516;10.528;2023-05-10T07:22:17;5.85;;;3.25;;
76107;SDS011;64834;52.516;10.528;2023-05-10T07:24:42;6.82;;;3.35;;
76107;SDS011;64834;52.516;10.528;2023-05-10T07:27:08;4.80;;;3.30;;
76107;SDS011;64834;52.516;10.528;2023-05-10T07:29:34;5.38;;;3.42;;
76107;SDS011;64834;52.516;10.528;2023-05-10T07:31:59;8.05;;;3.83;;
76107;SDS011;64834;52.516;10.528;2023-05-10T07:34:26;5.97;;;3.75;;
76107;SDS011;64834;52.516;10.528;2023-05-10T07:36:51;8.90;;;4.22;;
76107;SDS011;64834;52.516;10.528;2023-05-10T07:39:17;5.97;;;3.60;;
76107;SDS011;64834;52.516;10.528;2023-05-10T07:41:42;8.55;;;4.60;;
76107;SDS011;64834;52.516;10.528;2023-05-10T07:44:07;6.25;;;4.20;;
76107;SDS011;64834;52.516;10.528;2023-05-10T07:46:33;7.15;;;4.00;;
76107;SDS011;64834;52.516;10.528;2023-05-10T07:48:58;8.27;;;4.15;;
76107;SDS011;64834;52.516;10.528;2023-05-10T07:51:23;7.25;;;4.35;;
76107;SDS011;64834;52.516;10.528;2023-05-10T07:53:49;7.68;;;4.40;;
76107;SDS011;64834;52.516;10.528;2023-05-10T07:58:54;13.52;;;4.82;;
76107;SDS011;64834;52.516;10.528;2023-05-10T08:01:20;6.70;;;4.82;;
76107;SDS011;64834;52.516;10.528;2023-05-10T08:03:46;6.85;;;4.45;;
76107;SDS011;64834;52.516;10.528;2023-05-10T08:06:11;8.23;;;4.95;;
76107;SDS011;64834;52.516;10.528;2023-05-10T08:08:37;7.72;;;4.88;;
76107;SDS011;64834;52.516;10.528;2023-05-10T08:11:03;6.90;;;4.50;;
76107;SDS011;64834;52.516;10.528;2023-05-10T08:13:29;6.32;;;4.72;;
76107;SDS011;64834;52.516;10.528;2023-05-10T08:15:54;8.70;;;4.93;;
76107;SDS011;64834;52.516;10.528;2023-05-10T08:18:19;8.32;;;5.20;;
76107;SDS011;64834;52.516;10.528;2023-05-10T08:20:45;7.70;;;5.00;;
76107;SDS011;64834;52.516;10.528;2023-05-10T08:23:12;9.32;;;5.18;;
76107;SDS011;64834;52.516;10.528;2023-05-10T08:25:37;8.52;;;5.50;;
76107;SDS011;64834;52.516;10.528;2023-05-10T08:28:03;8.35;;;5.95;;
76107;SDS011;64834;52.516;10.528;2023-05-10T08:30:28;7.90;;;5.43;;
76107;SDS011;64834;52.516;10.528;2023-05-10T08:32:53;9.25;;;5.88;;
76107;SDS011;64834;52.516;10.528;2023-05-10T08:35:19;12.60;;;6.28;;
76107;SDS011;64834;52.516;10.528;2023-05-10T08:37:44;8.80;;;5.75;;
76107;SDS011;64834;52.516;10.528;2023-05-10T08:40:10;9.20;;;6.05;;
76107;SDS011;64834;52.516;10.528;2023-05-10T08:42:36;8.27;;;5.68;;
76107;SDS011;64834;52.516;10.528;2023-05-10T08:45:05;8.93;;;6.03;;
76107;SDS011;64834;52.516;10.528;2023-05-10T08:47:32;9.57;;;6.28;;
76107;SDS011;64834;52.516;10.528;2023-05-10T08:49:59;9.02;;;5.90;;
76107;SDS011;64834;52.516;10.528;2023-05-10T08:52:27;10.52;;;6.00;;
76107;SDS011;64834;52.516;10.528;2023-05-10T08:54:55;8.88;;;5.88;;
76107;SDS011;64834;52.516;10.528;2023-05-10T08:57:21;10.05;;;6.30;;
76107;SDS011;64834;52.516;10.528;2023-05-10T08:59:47;10.25;;;6.32;;
76107;SDS011;64834;52.516;10.528;2023-05-10T09:02:12;10.50;;;6.60;;
76107;SDS011;64834;52.516;10.528;2023-05-10T09:04:38;10.93;;;6.68;;
76107;SDS011;64834;52.516;10.528;2023-05-10T09:07:04;9.52;;;6.63;;
76107;SDS011;64834;52.516;10.528;2023-05-10T09:09:30;13.13;;;6.40;;
76107;SDS011;64834;52.516;10.528;2023-05-10T09:11:56;10.50;;;6.68;;
76107;SDS011;64834;52.516;10.528;2023-05-10T09:14:22;12.40;;;6.90;;
76107;SDS011;64834;52.516;10.528;2023-05-10T09:16:49;11.63;;;6.97;;
76107;SDS011;64834;52.516;10.528;2023-05-10T09:19:14;8.77;;;6.15;;
76107;SDS011;64834;52.516;10.528;2023-05-10T09:21:40;11.75;;;7.50;;
76107;SDS011;64834;52.516;10.528;2023-05-10T09:24:06;11.68;;;7.53;;
76107;SDS011;64834;52.516;10.528;2023-05-10T09:26:32;12.18;;;7.53;;
76107;SDS011;64834;52.516;10.528;2023-05-10T09:28:58;10.73;;;7.57;;
76107;SDS011;64834;52.516;10.528;2023-05-10T09:31:24;12.52;;;8.10;;
76107;SDS011;64834;52.516;10.528;2023-05-10T09:34:08;12.02;;;7.40;;
76107;SDS011;64834;52.516;10.528;2023-05-10T09:36:34;10.60;;;7.25;;
76107;SDS011;64834;52.516;10.528;2023-05-10T09:38:59;12.63;;;8.43;;
76107;SDS011;64834;52.516;10.528;2023-05-10T09:41:24;11.98;;;8.98;;
76107;SDS011;64834;52.516;10.528;2023-05-10T09:43:50;15.30;;;8.57;;
76107;SDS011;64834;52.516;10.528;2023-05-10T09:46:20;11.95;;;8.60;;
76107;SDS011;64834;52.516;10.528;2023-05-10T09:48:46;14.77;;;9.57;;
76107;SDS011;64834;52.516;10.528;2023-05-10T09:51:22;11.93;;;8.32;;
76107;SDS011;64834;52.516;10.528;2023-05-10T09:53:48;13.88;;;8.30;;
76107;SDS011;64834;52.516;10.528;2023-05-10T09:56:32;12.98;;;8.30;;
76107;SDS011;64834;52.516;10.528;2023-05-10T09:59:02;12.25;;;8.63;;
76107;SDS011;64834;52.516;10.528;2023-05-10T10:01:28;13.23;;;8.93;;
76107;SDS011;64834;52.516;10.528;2023-05-10T10:03:54;11.45;;;8.52;;
76107;SDS011;64834;52.516;10.528;2023-05-10T10:06:19;13.10;;;9.02;;
76107;SDS011;64834;52.516;10.528;2023-05-10T10:08:45;15.63;;;9.57;;
76107;SDS011;64834;52.516;10.528;2023-05-10T10:11:11;14.77;;;9.32;;
76107;SDS011;64834;52.516;10.528;2023-05-10T10:13:36;15.18;;;9.50;;
76107;SDS011;64834;52.516;10.528;2023-05-10T10:16:01;14.48;;;9.38;;
76107;SDS011;64834;52.516;10.528;2023-05-10T10:18:27;13.90;;;9.45;;
76107;SDS011;64834;52.516;10.528;2023-05-10T10:20:55;15.95;;;9.93;;
76107;SDS011;64834;52.516;10.528;2023-05-10T10:23:21;15.25;;;10.18;;
76107;SDS011;64834;52.516;10.528;2023-05-10T10:25:46;16.02;;;10.52;;
76107;SDS011;64834;52.516;10.528;2023-05-10T10:31:01;15.85;;;10.10;;
76107;SDS011;64834;52.516;10.528;2023-05-10T10:33:40;15.52;;;10.07;;
76107;SDS011;64834;52.516;10.528;2023-05-10T10:36:20;19.55;;;11.65;;
76107;SDS011;64834;52.516;10.528;2023-05-10T10:41:26;14.50;;;9.87;;
76107;SDS011;64834;52.516;10.528;2023-05-10T10:44:22;12.63;;;8.18;;
76107;SDS011;64834;52.516;10.528;2023-05-10T10:49:48;11.73;;;6.78;;
76107;SDS011;64834;52.516;10.528;2023-05-10T10:52:28;11.70;;;8.10;;
76107;SDS011;64834;52.516;10.528;2023-05-10T10:55:03;13.40;;;8.30;;
76107;SDS011;64834;52.516;10.528;2023-05-10T10:57:42;10.27;;;7.15;;
76107;SDS011;64834;52.516;10.528;2023-05-10T11:00:20;10.73;;;6.78;;
76107;SDS011;64834;52.516;10.528;2023-05-10T11:02:49;8.38;;;5.47;;
76107;SDS011;64834;52.516;10.528;2023-05-10T11:10:38;7.65;;;5.72;;
76107;SDS011;64834;52.516;10.528;2023-05-10T11:13:06;8.02;;;5.35;;
76107;SDS011;64834;52.516;10.528;2023-05-10T11:15:38;6.32;;;4.70;;
76107;SDS011;64834;52.516;10.528;2023-05-10T11:18:24;4.25;;;3.20;;
76107;SDS011;64834;52.516;10.528;2023-05-10T11:20:51;3.92;;;2.58;;
76107;SDS011;64834;52.516;10.528;2023-05-10T11:23:19;4.07;;;2.30;;
76107;SDS011;64834;52.516;10.528;2023-05-10T11:25:46;3.83;;;2.47;;
76107;SDS011;64834;52.516;10.528;2023-05-10T11:28:13;2.97;;;1.83;;
76107;SDS011;64834;52.516;10.528;2023-05-10T11:30:39;1.80;;;1.00;;
76107;SDS011;64834;52.516;10.528;2023-05-10T11:33:06;3.15;;;1.30;;
76107;SDS011;64834;52.516;10.528;2023-05-10T11:35:36;2.00;;;1.27;;
76107;SDS011;64834;52.516;10.528;2023-05-10T11:38:05;2.60;;;1.65;;
76107;SDS011;64834;52.516;10.528;2023-05-10T11:40:31;2.28;;;1.40;;
76107;SDS011;64834;52.516;10.528;2023-05-10T11:42:56;2.40;;;1.60;;
76107;SDS011;64834;52.516;10.528;2023-05-10T11:45:23;2.03;;;0.70;;
76107;SDS011;64834;52.516;10.528;2023-05-10T11:47:49;2.22;;;1.00;;
76107;SDS011;64834;52.516;10.528;2023-05-10T11:50:15;2.25;;;1.05;;
76107;SDS011;64834;52.516;10.528;2023-05-10T11:52:40;2.60;;;1.35;;
76107;SDS011;64834;52.516;10.528;2023-05-10T11:55:06;3.47;;;1.33;;
76107;SDS011;64834;52.516;10.528;2023-05-10T11:57:31;1.90;;;1.10;;
76107;SDS011;64834;52.516;10.528;2023-05-10T11:59:57;2.60;;;1.60;;
76107;SDS011;64834;52.516;10.528;2023-05-10T12:02:22;2.75;;;1.70;;
76107;SDS011;64834;52.516;10.528;2023-05-10T12:04:48;2.97;;;1.58;;
76107;SDS011;64834;52.516;10.528;2023-05-10T12:07:14;2.17;;;1.52;;
76107;SDS011;64834;52.516;10.528;2023-05-10T12:09:43;2.78;;;1.77;;
76107;SDS011;64834;52.516;10.528;2023-05-10T12:12:10;2.90;;;1.58;;
76107;SDS011;64834;52.516;10.528;2023-05-10T12:14:40;2.38;;;1.48;;
76107;SDS011;64834;52.516;10.528;2023-05-10T12:17:05;2.28;;;1.50;;
76107;SDS011;64834;52.516;10.528;2023-05-10T12:19:37;2.40;;;1.60;;
76107;SDS011;64834;52.516;10.528;2023-05-10T12:22:04;2.30;;;1.55;;
76107;SDS011;64834;52.516;10.528;2023-05-10T12:24:30;2.53;;;1.35;;
76107;SDS011;64834;52.516;10.528;2023-05-10T12:26:55;2.53;;;1.63;;
76107;SDS011;64834;52.516;10.528;2023-05-10T12:29:21;2.97;;;1.50;;
76107;SDS011;64834;52.516;10.528;2023-05-10T12:31:53;3.30;;;1.70;;
76107;SDS011;64834;52.516;10.528;2023-05-10T12:34:32;2.00;;;1.30;;
76107;SDS011;64834;52.516;10.528;2023-05-10T12:36:58;2.30;;;1.60;;
76107;SDS011;64834;52.516;10.528;2023-05-10T12:39:25;2.97;;;1.60;;
76107;SDS011;64834;52.516;10.528;2023-05-10T12:41:51;2.28;;;1.60;;
76107;SDS011;64834;52.516;10.528;2023-05-10T12:44:16;2.97;;;1.52;;
76107;SDS011;64834;52.516;10.528;2023-05-10T12:46:43;3.60;;;1.60;;
76107;SDS011;64834;52.516;10.528;2023-05-10T12:49:08;2.78;;;1.48;;
76107;SDS011;64834;52.516;10.528;2023-05-10T12:51:33;3.28;;;1.83;;
76107;SDS011;64834;52.516;10.528;2023-05-10T12:53:59;2.85;;;1.90;;
76107;SDS011;64834;52.516;10.528;2023-05-10T12:56:24;1.95;;;1.40;;
76107;SDS011;64834;52.516;10.528;2023-05-10T12:58:50;2.33;;;1.50;;
76107;SDS011;64834;52.516;10.528;2023-05-10T13:01:15;1.85;;;1.50;;
76107;SDS011;64834;52.516;10.528;2023-05-10T13:03:41;3.75;;;2.55;;
76107;SDS011;64834;52.516;10.528;2023-05-10T13:06:07;2.30;;;1.60;;
76107;SDS011;64834;52.516;10.528;2023-05-10T13:08:33;2.10;;;1.58;;
76107;SDS011;64834;52.516;10.528;2023-05-10T13:10:59;1.92;;;1.48;;
76107;SDS011;64834;52.516;10.528;2023-05-10T13:13:25;2.08;;;1.40;;
76107;SDS011;64834;52.516;10.528;2023-05-10T13:15:51;2.00;;;1.33;;
76107;SDS011;64834;52.516;10.528;2023-05-10T13:18:16;3.63;;;1.52;;
76107;SDS011;64834;52.516;10.528;2023-05-10T13:20:41;2.13;;;1.40;;
76107;SDS011;64834;52.516;10.528;2023-05-10T13:23:09;2.47;;;1.50;;
76107;SDS011;64834;52.516;10.528;2023-05-10T13:25:34;2.35;;;1.52;;
76107;SDS011;64834;52.516;10.528;2023-05-10T13:28:00;2.08;;;1.45;;
76107;SDS011;64834;52.516;10.528;2023-05-10T13:30:25;3.17;;;1.65;;
76107;SDS011;64834;52.516;10.528;2023-05-10T13:32:51;2.30;;;1.60;;
76107;SDS011;64834;52.516;10.528;2023-05-10T13:35:16;2.92;;;1.48;;
76107;SDS011;64834;52.516;10.528;2023-05-10T13:37:41;4.30;;;1.52;;
76107;SDS011;64834;52.516;10.528;2023-05-10T13:40:07;2.28;;;1.55;;
76107;SDS011;64834;52.516;10.528;2023-05-10T13:42:32;3.10;;;1.42;;
76107;SDS011;64834;52.516;10.528;2023-05-10T13:44:58;2.38;;;1.60;;
76107;SDS011;64834;52.516;10.528;2023-05-10T13:47:25;2.72;;;1.60;;
76107;SDS011;64834;52.516;10.528;2023-05-10T13:49:51;3.10;;;1.92;;
76107;SDS011;64834;52.516;10.528;2023-05-10T13:52:16;3.25;;;1.95;;
76107;SDS011;64834;52.516;10.528;2023-05-10T13:54:41;2.85;;;1.92;;
76107;SDS011;64834;52.516;10.528;2023-05-10T13:57:07;2.53;;;1.80;;
76107;SDS011;64834;52.516;10.528;2023-05-10T13:59:32;3.53;;;2.00;;
76107;SDS011;64834;52.516;10.528;2023-05-10T14:01:58;2.30;;;1.52;;
76107;SDS011;64834;52.516;10.528;2023-05-10T14:04:23;4.65;;;2.40;;
76107;SDS011;64834;52.516;10.528;2023-05-10T14:06:49;2.53;;;1.80;;
76107;SDS011;64834;52.516;10.528;2023-05-10T14:09:14;3.63;;;2.13;;
76107;SDS011;64834;52.516;10.528;2023-05-10T14:11:40;3.58;;;1.80;;
76107;SDS011;64834;52.516;10.528;2023-05-10T14:14:08;3.13;;;2.22;;
76107;SDS011;64834;52.516;10.528;2023-05-10T14:16:33;2.72;;;2.10;;
76107;SDS011;64834;52.516;10.528;2023-05-10T14:18:59;3.88;;;2.22;;
76107;SDS011;64834;52.516;10.528;2023-05-10T14:21:24;3.40;;;2.50;;
76107;SDS011;64834;52.516;10.528;2023-05-10T14:23:49;3.28;;;2.40;;
76107;SDS011;64834;52.516;10.528;2023-05-10T14:26:15;3.00;;;2.30;;
76107;SDS011;64834;52.516;10.528;2023-05-10T14:28:40;2.80;;;2.22;;
76107;SDS011;64834;52.516;10.528;2023-05-10T14:31:05;2.72;;;2.33;;
76107;SDS011;64834;52.516;10.528;2023-05-10T14:33:31;3.20;;;2.50;;
76107;SDS011;64834;52.516;10.528;2023-05-10T14:35:56;3.47;;;2.50;;
76107;SDS011;64834;52.516;10.528;2023-05-10T14:38:22;4.45;;;2.60;;
76107;SDS011;64834;52.516;10.528;2023-05-10T14:40:48;4.10;;;2.72;;
76107;SDS011;64834;52.516;10.528;2023-05-10T14:43:13;4.50;;;2.58;;
76107;SDS011;64834;52.516;10.528;2023-05-10T14:45:38;3.92;;;2.85;;
76107;SDS011;64834;52.516;10.528;2023-05-10T14:48:04;4.97;;;3.13;;
76107;SDS011;64834;52.516;10.528;2023-05-10T14:50:29;3.72;;;2.90;;
76107;SDS011;64834;52.516;10.528;2023-05-10T14:52:56;3.70;;;3.10;;
76107;SDS011;64834;52.516;10.528;2023-05-10T14:55:21;4.18;;;3.30;;
76107;SDS011;64834;52.516;10.528;2023-05-10T14:57:47;4.72;;;3.55;;
76107;SDS011;64834;52.516;10.528;2023-05-10T15:02:40;6.53;;;3.30;;
76107;SDS011;64834;52.516;10.528;2023-05-10T15:05:06;3.78;;;3.25;;
76107;SDS011;64834;52.516;10.528;2023-05-10T15:07:32;4.40;;;3.25;;
76107;SDS011;64834;52.516;10.528;2023-05-10T15:09:57;6.15;;;3.60;;